sensor_id;sensor_type;location;lat;lon;timestamp;temperature;humidity
48206;DHT22;33995;48.202;16.260;2023-02-01T00:01:12;4.30;99.90
48206;DHT22;33995;48.202;16.260;2023-02-01T00:03:39;4.40;99.90
48206;DHT22;33995;48.202;16.260;2023-02-01T00:06:08;4.30;99.90
48206;DHT22;33995;48.202;16.260;2023-02-01T00:08:39;4.30;99.90
48206;DHT22;33995;48.202;16.260;2023-02-01T00:11:09;4.30;99.90
48206;DHT22;33995;48.202;16.260;2023-02-01T00:13:42;4.40;99.90
48206;DHT22;33995;48.202;16.260;2023-02-01T00:21:31;4.40;99.90
48206;DHT22;33995;48.202;16.260;2023-02-01T00:24:00;4.40;99.90
48206;DHT22;33995;48.202;16.260;2023-02-01T00:26:42;4.40;99.90
48206;DHT22;33995;48.202;16.260;2023-02-01T00:29:15;4.40;99.90
48206;DHT22;33995;48.202;16.260;2023-02-01T00:31:43;4.50;99.90
48206;DHT22;33995;48.202;16.260;2023-02-01T00:34:15;4.50;99.90
48206;DHT22;33995;48.202;16.260;2023-02-01T00:36:43;4.50;99.90
48206;DHT22;33995;48.202;16.260;2023-02-01T00:39:15;4.50;99.90
48206;DHT22;33995;48.202;16.260;2023-02-01T00:41:45;4.60;99.90
48206;DHT22;33995;48.202;16.260;2023-02-01T00:44:13;4.60;99.90
48206;DHT22;33995;48.202;16.260;2023-02-01T00:46:42;4.60;99.90
48206;DHT22;33995;48.202;16.260;2023-02-01T00:49:09;4.60;99.90
48206;DHT22;33995;48.202;16.260;2023-02-01T00:51:37;4.60;99.90
48206;DHT22;33995;48.202;16.260;2023-02-01T00:54:08;4.50;99.90
48206;DHT22;33995;48.202;16.260;2023-02-01T00:56:36;4.50;99.90
48206;DHT22;33995;48.202;16.260;2023-02-01T00:59:04;4.50;99.90
48206;DHT22;33995;48.202;16.260;2023-02-01T01:01:31;4.50;99.90
48206;DHT22;33995;48.202;16.260;2023-02-01T01:03:59;4.60;99.90
48206;DHT22;33995;48.202;16.260;2023-02-01T01:06:33;4.50;99.90
48206;DHT22;33995;48.202;16.260;2023-02-01T01:09:05;4.60;99.90
48206;DHT22;33995;48.202;16.260;2023-02-01T01:11:36;4.50;99.90
48206;DHT22;33995;48.202;16.260;2023-02-01T01:14:06;4.50;99.90
48206;DHT22;33995;48.202;16.260;2023-02-01T01:16:35;4.60;99.90
48206;DHT22;33995;48.202;16.260;2023-02-01T01:19:02;4.60;99.90
48206;DHT22;33995;48.202;16.260;2023-02-01T01:21:30;4.60;99.90
48206;DHT22;33995;48.202;16.260;2023-02-01T01:23:58;4.60;99.90
48206;DHT22;33995;48.202;16.260;2023-02-01T01:26:29;4.60;99.90
48206;DHT22;33995;48.202;16.260;2023-02-01T01:28:58;4.60;99.90
48206;DHT22;33995;48.202;16.260;2023-02-01T01:31:26;4.60;99.90
48206;DHT22;33995;48.202;16.260;2023-02-01T01:33:56;4.60;99.90
48206;DHT22;33995;48.202;16.260;2023-02-01T01:36:27;4.70;99.90
48206;DHT22;33995;48.202;16.260;2023-02-01T01:38:55;4.60;99.90
48206;DHT22;33995;48.202;16.260;2023-02-01T01:41:25;4.60;99.90
48206;DHT22;33995;48.202;16.260;2023-02-01T01:43:58;4.60;99.90
48206;DHT22;33995;48.202;16.260;2023-02-01T01:46:33;4.50;99.90
48206;DHT22;33995;48.202;16.260;2023-02-01T01:49:13;4.50;99.90
48206;DHT22;33995;48.202;16.260;2023-02-01T01:52:03;4.50;99.90
48206;DHT22;33995;48.202;16.260;2023-02-01T01:54:37;4.60;99.90
48206;DHT22;33995;48.202;16.260;2023-02-01T01:57:09;4.50;99.90
48206;DHT22;33995;48.202;16.260;2023-02-01T01:59:38;4.50;99.90
48206;DHT22;33995;48.202;16.260;2023-02-01T02:02:08;4.60;99.90
48206;DHT22;33995;48.202;16.260;2023-02-01T02:04:36;4.60;99.90
48206;DHT22;33995;48.202;16.260;2023-02-01T02:07:23;4.60;99.90
48206;DHT22;33995;48.202;16.260;2023-02-01T02:09:52;4.70;99.90
48206;DHT22;33995;48.202;16.260;2023-02-01T02:12:28;4.60;99.90
48206;DHT22;33995;48.202;16.260;2023-02-01T02:14:55;4.70;99.90
48206;DHT22;33995;48.202;16.260;2023-02-01T02:29:36;4.60;99.90
48206;DHT22;33995;48.202;16.260;2023-02-01T02:38:05;4.60;99.90
48206;DHT22;33995;48.202;16.260;2023-02-01T02:41:01;4.70;99.90
48206;DHT22;33995;48.202;16.260;2023-02-01T02:43:42;4.70;99.90
48206;DHT22;33995;48.202;16.260;2023-02-01T02:46:38;4.60;99.90
48206;DHT22;33995;48.202;16.260;2023-02-01T02:49:52;4.60;99.90
48206;DHT22;33995;48.202;16.260;2023-02-01T02:52:47;4.60;99.90
48206;DHT22;33995;48.202;16.260;2023-02-01T02:55:35;4.60;99.90
48206;DHT22;33995;48.202;16.260;2023-02-01T02:58:05;4.60;99.90
48206;DHT22;33995;48.202;16.260;2023-02-01T03:00:53;4.60;99.90
48206;DHT22;33995;48.202;16.260;2023-02-01T03:03:40;4.50;99.90
48206;DHT22;33995;48.202;16.260;2023-02-01T03:06:27;4.50;99.90
48206;DHT22;33995;48.202;16.260;2023-02-01T03:08:57;4.60;99.90
48206;DHT22;33995;48.202;16.260;2023-02-01T03:11:25;4.50;99.90
48206;DHT22;33995;48.202;16.260;2023-02-01T03:14:13;4.50;99.90
48206;DHT22;33995;48.202;16.260;2023-02-01T03:16:57;4.40;99.90
48206;DHT22;33995;48.202;16.260;2023-02-01T03:19:39;4.50;99.90
48206;DHT22;33995;48.202;16.260;2023-02-01T03:22:15;4.50;99.90
48206;DHT22;33995;48.202;16.260;2023-02-01T03:24:47;4.50;99.90
48206;DHT22;33995;48.202;16.260;2023-02-01T03:27:27;4.50;99.90
48206;DHT22;33995;48.202;16.260;2023-02-01T03:32:52;4.40;99.90
48206;DHT22;33995;48.202;16.260;2023-02-01T03:35:43;4.50;99.90
48206;DHT22;33995;48.202;16.260;2023-02-01T03:38:21;4.50;99.90
48206;DHT22;33995;48.202;16.260;2023-02-01T03:44:06;4.50;99.90
48206;DHT22;33995;48.202;16.260;2023-02-01T03:47:15;4.50;99.90
48206;DHT22;33995;48.202;16.260;2023-02-01T03:49:50;4.60;99.90
48206;DHT22;33995;48.202;16.260;2023-02-01T03:52:23;4.60;99.90
48206;DHT22;33995;48.202;16.260;2023-02-01T03:54:55;4.60;99.90
48206;DHT22;33995;48.202;16.260;2023-02-01T03:57:30;4.60;99.90
48206;DHT22;33995;48.202;16.260;2023-02-01T04:00:20;4.70;99.90
48206;DHT22;33995;48.202;16.260;2023-02-01T04:02:50;4.80;99.90
48206;DHT22;33995;48.202;16.260;2023-02-01T04:05:19;4.70;99.90
48206;DHT22;33995;48.202;16.260;2023-02-01T04:07:57;4.80;99.90
48206;DHT22;33995;48.202;16.260;2023-02-01T04:10:25;4.80;99.90
48206;DHT22;33995;48.202;16.260;2023-02-01T04:12:53;4.80;99.90
48206;DHT22;33995;48.202;16.260;2023-02-01T04:15:23;4.80;99.90
48206;DHT22;33995;48.202;16.260;2023-02-01T04:17:50;4.80;99.90
48206;DHT22;33995;48.202;16.260;2023-02-01T04:20:17;4.80;99.90
48206;DHT22;33995;48.202;16.260;2023-02-01T04:22:46;4.90;99.90
48206;DHT22;33995;48.202;16.260;2023-02-01T04:25:13;4.90;99.90
48206;DHT22;33995;48.202;16.260;2023-02-01T04:27:40;5.00;99.90
48206;DHT22;33995;48.202;16.260;2023-02-01T04:30:10;5.00;99.90
48206;DHT22;33995;48.202;16.260;2023-02-01T04:32:38;5.00;99.90
48206;DHT22;33995;48.202;16.260;2023-02-01T04:35:06;5.00;99.90
48206;DHT22;33995;48.202;16.260;2023-02-01T04:37:34;5.00;99.90
48206;DHT22;33995;48.202;16.260;2023-02-01T04:40:01;5.00;99.90
48206;DHT22;33995;48.202;16.260;2023-02-01T04:42:32;5.10;99.90
48206;DHT22;33995;48.202;16.260;2023-02-01T04:45:01;5.10;99.90
48206;DHT22;33995;48.202;16.260;2023-02-01T04:47:28;5.10;99.90
48206;DHT22;33995;48.202;16.260;2023-02-01T04:49:56;5.10;99.90
48206;DHT22;33995;48.202;16.260;2023-02-01T04:52:23;5.10;99.90
48206;DHT22;33995;48.202;16.260;2023-02-01T04:54:51;5.00;99.90
48206;DHT22;33995;48.202;16.260;2023-02-01T04:57:24;5.00;99.90
48206;DHT22;33995;48.202;16.260;2023-02-01T04:59:57;5.00;99.90
48206;DHT22;33995;48.202;16.260;2023-02-01T05:02:25;5.00;99.90
48206;DHT22;33995;48.202;16.260;2023-02-01T05:04:52;5.10;99.90
48206;DHT22;33995;48.202;16.260;2023-02-01T05:07:21;5.10;99.90
48206;DHT22;33995;48.202;16.260;2023-02-01T05:09:48;5.10;99.90
48206;DHT22;33995;48.202;16.260;2023-02-01T05:12:15;5.10;99.90
48206;DHT22;33995;48.202;16.260;2023-02-01T05:15:01;5.10;99.90
48206;DHT22;33995;48.202;16.260;2023-02-01T05:17:28;5.10;99.90
48206;DHT22;33995;48.202;16.260;2023-02-01T05:19:55;5.20;99.90
48206;DHT22;33995;48.202;16.260;2023-02-01T05:22:22;5.20;99.90
48206;DHT22;33995;48.202;16.260;2023-02-01T05:24:49;5.20;99.90
48206;DHT22;33995;48.202;16.260;2023-02-01T05:27:16;5.30;99.90
48206;DHT22;33995;48.202;16.260;2023-02-01T05:29:45;5.20;99.90
48206;DHT22;33995;48.202;16.260;2023-02-01T05:32:12;5.20;99.90
48206;DHT22;33995;48.202;16.260;2023-02-01T05:34:48;5.20;99.90
48206;DHT22;33995;48.202;16.260;2023-02-01T05:37:18;5.20;99.90
48206;DHT22;33995;48.202;16.260;2023-02-01T05:39:47;5.20;99.90
48206;DHT22;33995;48.202;16.260;2023-02-01T05:42:14;5.20;99.90
48206;DHT22;33995;48.202;16.260;2023-02-01T05:44:41;5.10;99.90
48206;DHT22;33995;48.202;16.260;2023-02-01T05:47:09;5.10;99.90
48206;DHT22;33995;48.202;16.260;2023-02-01T05:49:36;5.20;99.90
48206;DHT22;33995;48.202;16.260;2023-02-01T05:52:03;5.10;99.90
48206;DHT22;33995;48.202;16.260;2023-02-01T05:54:30;5.20;99.90
48206;DHT22;33995;48.202;16.260;2023-02-01T05:56:57;5.30;99.90
48206;DHT22;33995;48.202;16.260;2023-02-01T05:59:25;5.20;99.90
48206;DHT22;33995;48.202;16.260;2023-02-01T06:01:52;5.10;99.90
48206;DHT22;33995;48.202;16.260;2023-02-01T06:04:19;5.20;99.90
48206;DHT22;33995;48.202;16.260;2023-02-01T06:06:47;5.10;99.90
48206;DHT22;33995;48.202;16.260;2023-02-01T06:09:17;5.20;99.90
48206;DHT22;33995;48.202;16.260;2023-02-01T06:11:46;5.20;99.90
48206;DHT22;33995;48.202;16.260;2023-02-01T06:14:13;5.20;99.90
48206;DHT22;33995;48.202;16.260;2023-02-01T06:16:40;5.30;99.90
48206;DHT22;33995;48.202;16.260;2023-02-01T06:19:07;5.30;99.90
48206;DHT22;33995;48.202;16.260;2023-02-01T06:21:36;5.30;99.90
48206;DHT22;33995;48.202;16.260;2023-02-01T06:24:04;5.30;99.90
48206;DHT22;33995;48.202;16.260;2023-02-01T06:26:31;5.30;99.90
48206;DHT22;33995;48.202;16.260;2023-02-01T06:29:00;5.30;99.90
48206;DHT22;33995;48.202;16.260;2023-02-01T06:31:27;5.30;99.90
48206;DHT22;33995;48.202;16.260;2023-02-01T06:33:54;5.40;99.90
48206;DHT22;33995;48.202;16.260;2023-02-01T06:36:21;5.40;99.90
48206;DHT22;33995;48.202;16.260;2023-02-01T06:38:49;5.40;99.90
48206;DHT22;33995;48.202;16.260;2023-02-01T06:41:16;5.40;99.90
48206;DHT22;33995;48.202;16.260;2023-02-01T06:43:43;5.40;99.90
48206;DHT22;33995;48.202;16.260;2023-02-01T06:46:13;5.40;99.90
48206;DHT22;33995;48.202;16.260;2023-02-01T06:48:40;5.40;99.90
48206;DHT22;33995;48.202;16.260;2023-02-01T06:51:28;5.50;99.90
48206;DHT22;33995;48.202;16.260;2023-02-01T06:53:57;5.50;99.90
48206;DHT22;33995;48.202;16.260;2023-02-01T06:56:24;5.50;99.90
48206;DHT22;33995;48.202;16.260;2023-02-01T06:58:52;5.50;99.90
48206;DHT22;33995;48.202;16.260;2023-02-01T07:01:20;5.50;99.90
48206;DHT22;33995;48.202;16.260;2023-02-01T07:03:49;5.40;99.90
48206;DHT22;33995;48.202;16.260;2023-02-01T07:06:18;5.50;99.90
48206;DHT22;33995;48.202;16.260;2023-02-01T07:08:45;5.50;99.90
48206;DHT22;33995;48.202;16.260;2023-02-01T07:11:19;5.50;99.90
48206;DHT22;33995;48.202;16.260;2023-02-01T07:13:47;5.50;99.90
48206;DHT22;33995;48.202;16.260;2023-02-01T07:16:17;5.50;99.90
48206;DHT22;33995;48.202;16.260;2023-02-01T07:18:50;5.60;99.90
48206;DHT22;33995;48.202;16.260;2023-02-01T07:21:20;5.50;99.90
48206;DHT22;33995;48.202;16.260;2023-02-01T07:23:47;5.50;99.90
48206;DHT22;33995;48.202;16.260;2023-02-01T07:26:15;5.60;99.90
48206;DHT22;33995;48.202;16.260;2023-02-01T07:28:43;5.60;99.90
48206;DHT22;33995;48.202;16.260;2023-02-01T07:31:14;5.60;99.90
48206;DHT22;33995;48.202;16.260;2023-02-01T07:33:49;5.50;99.90
48206;DHT22;33995;48.202;16.260;2023-02-01T07:36:20;5.60;99.90
48206;DHT22;33995;48.202;16.260;2023-02-01T07:38:48;5.70;99.90
48206;DHT22;33995;48.202;16.260;2023-02-01T07:41:18;5.60;99.90
48206;DHT22;33995;48.202;16.260;2023-02-01T07:43:48;5.70;99.90
48206;DHT22;33995;48.202;16.260;2023-02-01T07:46:18;5.70;99.90
48206;DHT22;33995;48.202;16.260;2023-02-01T07:48:47;5.60;99.90
48206;DHT22;33995;48.202;16.260;2023-02-01T07:51:16;5.70;99.90
48206;DHT22;33995;48.202;16.260;2023-02-01T07:53:44;5.70;99.90
48206;DHT22;33995;48.202;16.260;2023-02-01T07:56:17;5.60;99.90
48206;DHT22;33995;48.202;16.260;2023-02-01T07:58:54;5.70;99.90
48206;DHT22;33995;48.202;16.260;2023-02-01T08:01:28;5.60;99.90
48206;DHT22;33995;48.202;16.260;2023-02-01T08:04:00;5.70;99.90
48206;DHT22;33995;48.202;16.260;2023-02-01T08:06:32;5.80;99.90
48206;DHT22;33995;48.202;16.260;2023-02-01T08:09:00;5.70;99.90
48206;DHT22;33995;48.202;16.260;2023-02-01T08:11:27;5.70;99.90
48206;DHT22;33995;48.202;16.260;2023-02-01T08:13:54;5.70;99.90
48206;DHT22;33995;48.202;16.260;2023-02-01T08:16:23;5.60;99.90
48206;DHT22;33995;48.202;16.260;2023-02-01T08:18:52;5.50;99.90
48206;DHT22;33995;48.202;16.260;2023-02-01T08:21:25;5.60;99.90
48206;DHT22;33995;48.202;16.260;2023-02-01T08:23:53;5.60;99.90
48206;DHT22;33995;48.202;16.260;2023-02-01T08:26:25;5.70;99.90
48206;DHT22;33995;48.202;16.260;2023-02-01T08:28:58;5.80;99.90
48206;DHT22;33995;48.202;16.260;2023-02-01T08:31:28;6.00;99.90
48206;DHT22;33995;48.202;16.260;2023-02-01T08:33:59;6.00;99.90
48206;DHT22;33995;48.202;16.260;2023-02-01T08:36:30;6.10;99.90
48206;DHT22;33995;48.202;16.260;2023-02-01T08:38:57;6.10;99.90
48206;DHT22;33995;48.202;16.260;2023-02-01T08:41:26;6.10;99.90
48206;DHT22;33995;48.202;16.260;2023-02-01T08:43:55;6.10;99.90
48206;DHT22;33995;48.202;16.260;2023-02-01T08:46:22;6.10;99.90
48206;DHT22;33995;48.202;16.260;2023-02-01T08:48:52;6.20;99.90
48206;DHT22;33995;48.202;16.260;2023-02-01T08:51:21;6.20;99.90
48206;DHT22;33995;48.202;16.260;2023-02-01T08:53:49;6.20;99.90
48206;DHT22;33995;48.202;16.260;2023-02-01T08:56:17;6.10;99.90
48206;DHT22;33995;48.202;16.260;2023-02-01T08:58:45;6.10;99.90
48206;DHT22;33995;48.202;16.260;2023-02-01T09:01:16;6.10;99.90
48206;DHT22;33995;48.202;16.260;2023-02-01T09:03:44;6.10;99.90
48206;DHT22;33995;48.202;16.260;2023-02-01T09:06:14;6.10;99.90
48206;DHT22;33995;48.202;16.260;2023-02-01T09:08:44;6.10;99.90
48206;DHT22;33995;48.202;16.260;2023-02-01T09:11:15;6.10;99.90
48206;DHT22;33995;48.202;16.260;2023-02-01T09:13:42;6.10;99.90
48206;DHT22;33995;48.202;16.260;2023-02-01T09:16:17;6.10;99.90
48206;DHT22;33995;48.202;16.260;2023-02-01T09:18:45;6.10;99.90
48206;DHT22;33995;48.202;16.260;2023-02-01T09:21:34;6.20;99.90
48206;DHT22;33995;48.202;16.260;2023-02-01T09:24:02;6.10;99.90
48206;DHT22;33995;48.202;16.260;2023-02-01T09:26:30;6.10;99.90
48206;DHT22;33995;48.202;16.260;2023-02-01T09:29:00;6.00;99.90
48206;DHT22;33995;48.202;16.260;2023-02-01T09:31:27;6.10;99.90
48206;DHT22;33995;48.202;16.260;2023-02-01T09:33:55;6.10;99.90
48206;DHT22;33995;48.202;16.260;2023-02-01T09:36:22;6.10;99.90
48206;DHT22;33995;48.202;16.260;2023-02-01T09:38:52;6.00;99.90
48206;DHT22;33995;48.202;16.260;2023-02-01T09:47:22;5.90;99.90
48206;DHT22;33995;48.202;16.260;2023-02-01T09:50:08;6.00;99.90
48206;DHT22;33995;48.202;16.260;2023-02-01T09:55:49;5.90;99.90
48206;DHT22;33995;48.202;16.260;2023-02-01T10:01:09;6.00;99.90
48206;DHT22;33995;48.202;16.260;2023-02-01T10:03:38;5.90;99.90
48206;DHT22;33995;48.202;16.260;2023-02-01T10:09:24;6.00;99.90
48206;DHT22;33995;48.202;16.260;2023-02-01T10:12:12;6.00;99.90
48206;DHT22;33995;48.202;16.260;2023-02-01T10:18:23;6.20;99.90
48206;DHT22;33995;48.202;16.260;2023-02-01T10:26:25;6.40;99.90
48206;DHT22;33995;48.202;16.260;2023-02-01T10:29:00;6.60;99.90
48206;DHT22;33995;48.202;16.260;2023-02-01T10:31:30;6.60;99.90
48206;DHT22;33995;48.202;16.260;2023-02-01T10:34:21;6.70;99.90
48206;DHT22;33995;48.202;16.260;2023-02-01T10:37:08;6.90;99.90
48206;DHT22;33995;48.202;16.260;2023-02-01T10:39:38;7.20;99.90
48206;DHT22;33995;48.202;16.260;2023-02-01T10:42:07;7.40;99.90
48206;DHT22;33995;48.202;16.260;2023-02-01T10:44:42;7.20;99.90
48206;DHT22;33995;48.202;16.260;2023-02-01T10:47:10;7.20;99.90
48206;DHT22;33995;48.202;16.260;2023-02-01T10:50:02;7.00;99.90
48206;DHT22;33995;48.202;16.260;2023-02-01T10:52:45;6.90;99.90
48206;DHT22;33995;48.202;16.260;2023-02-01T10:58:02;6.50;99.90
48206;DHT22;33995;48.202;16.260;2023-02-01T11:00:52;6.60;99.90
48206;DHT22;33995;48.202;16.260;2023-02-01T11:03:44;6.20;99.90
48206;DHT22;33995;48.202;16.260;2023-02-01T11:06:45;6.20;99.90
48206;DHT22;33995;48.202;16.260;2023-02-01T11:09:23;6.10;99.90
48206;DHT22;33995;48.202;16.260;2023-02-01T11:11:55;6.30;99.90
48206;DHT22;33995;48.202;16.260;2023-02-01T11:14:34;6.30;99.90
48206;DHT22;33995;48.202;16.260;2023-02-01T11:17:26;6.40;99.90
48206;DHT22;33995;48.202;16.260;2023-02-01T11:20:03;6.40;99.90
48206;DHT22;33995;48.202;16.260;2023-02-01T11:22:33;6.30;99.90
48206;DHT22;33995;48.202;16.260;2023-02-01T11:25:08;6.20;99.90
48206;DHT22;33995;48.202;16.260;2023-02-01T11:27:36;6.10;99.90
48206;DHT22;33995;48.202;16.260;2023-02-01T11:32:59;6.00;99.90
48206;DHT22;33995;48.202;16.260;2023-02-01T11:35:31;5.90;99.90
48206;DHT22;33995;48.202;16.260;2023-02-01T11:38:00;5.90;99.90
48206;DHT22;33995;48.202;16.260;2023-02-01T11:40:36;6.00;99.90
48206;DHT22;33995;48.202;16.260;2023-02-01T11:43:25;5.80;99.90
48206;DHT22;33995;48.202;16.260;2023-02-01T11:46:00;5.80;99.90
48206;DHT22;33995;48.202;16.260;2023-02-01T11:48:30;5.60;99.90
48206;DHT22;33995;48.202;16.260;2023-02-01T11:51:17;5.60;99.90
48206;DHT22;33995;48.202;16.260;2023-02-01T11:57:39;5.70;99.90
48206;DHT22;33995;48.202;16.260;2023-02-01T12:20:13;6.40;99.90
48206;DHT22;33995;48.202;16.260;2023-02-01T12:31:23;6.40;99.90
48206;DHT22;33995;48.202;16.260;2023-02-01T12:43:00;7.00;99.90
48206;DHT22;33995;48.202;16.260;2023-02-01T12:45:58;9.60;99.90
48206;DHT22;33995;48.202;16.260;2023-02-01T12:51:23;10.00;99.90
48206;DHT22;33995;48.202;16.260;2023-02-01T12:54:11;9.80;99.90
48206;DHT22;33995;48.202;16.260;2023-02-01T12:56:44;11.10;99.90
48206;DHT22;33995;48.202;16.260;2023-02-01T13:05:30;8.90;99.90
48206;DHT22;33995;48.202;16.260;2023-02-01T13:08:13;9.50;99.90
48206;DHT22;33995;48.202;16.260;2023-02-01T13:10:59;10.90;99.90
48206;DHT22;33995;48.202;16.260;2023-02-01T13:16:37;10.90;99.90
48206;DHT22;33995;48.202;16.260;2023-02-01T13:22:06;16.30;99.90
48206;DHT22;33995;48.202;16.260;2023-02-01T13:24:45;15.70;99.90
48206;DHT22;33995;48.202;16.260;2023-02-01T13:27:16;13.60;99.90
48206;DHT22;33995;48.202;16.260;2023-02-01T13:44:11;8.50;99.90
48206;DHT22;33995;48.202;16.260;2023-02-01T13:46:41;8.10;99.90
48206;DHT22;33995;48.202;16.260;2023-02-01T13:49:37;8.10;99.90
48206;DHT22;33995;48.202;16.260;2023-02-01T13:52:36;9.30;99.90
48206;DHT22;33995;48.202;16.260;2023-02-01T13:55:27;9.70;99.90
48206;DHT22;33995;48.202;16.260;2023-02-01T14:00:33;8.10;99.90
48206;DHT22;33995;48.202;16.260;2023-02-01T14:10:55;8.20;99.90
48206;DHT22;33995;48.202;16.260;2023-02-01T14:13:38;8.20;99.90
48206;DHT22;33995;48.202;16.260;2023-02-01T14:16:27;8.20;99.90
48206;DHT22;33995;48.202;16.260;2023-02-01T14:19:00;8.00;99.90
48206;DHT22;33995;48.202;16.260;2023-02-01T14:24:17;7.30;99.90
48206;DHT22;33995;48.202;16.260;2023-02-01T14:26:46;7.20;99.90
48206;DHT22;33995;48.202;16.260;2023-02-01T14:50:34;7.00;99.90
48206;DHT22;33995;48.202;16.260;2023-02-01T15:01:33;6.80;99.90
48206;DHT22;33995;48.202;16.260;2023-02-01T15:04:15;6.50;99.90
48206;DHT22;33995;48.202;16.260;2023-02-01T15:07:05;6.20;99.90
48206;DHT22;33995;48.202;16.260;2023-02-01T15:09:37;6.20;99.90
48206;DHT22;33995;48.202;16.260;2023-02-01T15:18:03;5.80;99.90
48206;DHT22;33995;48.202;16.260;2023-02-01T15:20:32;5.80;99.90
48206;DHT22;33995;48.202;16.260;2023-02-01T15:23:02;5.60;99.90
48206;DHT22;33995;48.202;16.260;2023-02-01T15:25:35;5.70;99.90
48206;DHT22;33995;48.202;16.260;2023-02-01T15:28:13;5.70;99.90
48206;DHT22;33995;48.202;16.260;2023-02-01T15:30:53;5.70;99.90
48206;DHT22;33995;48.202;16.260;2023-02-01T15:33:21;5.70;99.90
48206;DHT22;33995;48.202;16.260;2023-02-01T15:35:55;5.60;99.90
48206;DHT22;33995;48.202;16.260;2023-02-01T15:41:17;5.50;99.90
48206;DHT22;33995;48.202;16.260;2023-02-01T15:46:31;5.60;99.90
48206;DHT22;33995;48.202;16.260;2023-02-01T15:48:59;5.50;99.90
48206;DHT22;33995;48.202;16.260;2023-02-01T15:51:29;5.50;99.90
48206;DHT22;33995;48.202;16.260;2023-02-01T15:54:05;5.50;99.90
48206;DHT22;33995;48.202;16.260;2023-02-01T15:56:40;5.60;99.90
48206;DHT22;33995;48.202;16.260;2023-02-01T15:59:19;5.60;99.90
48206;DHT22;33995;48.202;16.260;2023-02-01T16:01:52;5.70;99.90
48206;DHT22;33995;48.202;16.260;2023-02-01T16:07:32;5.60;99.90
48206;DHT22;33995;48.202;16.260;2023-02-01T16:10:01;5.60;99.90
48206;DHT22;33995;48.202;16.260;2023-02-01T16:12:53;5.60;99.90
48206;DHT22;33995;48.202;16.260;2023-02-01T16:15:27;5.70;99.90
48206;DHT22;33995;48.202;16.260;2023-02-01T16:17:58;5.70;99.90
48206;DHT22;33995;48.202;16.260;2023-02-01T16:20:27;5.70;99.90
48206;DHT22;33995;48.202;16.260;2023-02-01T16:22:56;5.70;99.90
48206;DHT22;33995;48.202;16.260;2023-02-01T16:25:25;5.70;99.90
48206;DHT22;33995;48.202;16.260;2023-02-01T16:27:55;5.60;99.90
48206;DHT22;33995;48.202;16.260;2023-02-01T16:30:23;5.60;99.90
48206;DHT22;33995;48.202;16.260;2023-02-01T16:32:59;5.60;99.90
48206;DHT22;33995;48.202;16.260;2023-02-01T16:35:31;5.70;99.90
48206;DHT22;33995;48.202;16.260;2023-02-01T16:38:13;5.70;99.90
48206;DHT22;33995;48.202;16.260;2023-02-01T16:40:44;5.70;99.90
48206;DHT22;33995;48.202;16.260;2023-02-01T16:43:14;5.70;99.90
48206;DHT22;33995;48.202;16.260;2023-02-01T16:45:45;5.70;99.90
48206;DHT22;33995;48.202;16.260;2023-02-01T16:50:53;5.70;99.90
48206;DHT22;33995;48.202;16.260;2023-02-01T16:53:22;5.60;99.90
48206;DHT22;33995;48.202;16.260;2023-02-01T16:55:53;5.70;99.90
48206;DHT22;33995;48.202;16.260;2023-02-01T16:58:20;5.70;99.90
48206;DHT22;33995;48.202;16.260;2023-02-01T17:00:48;5.70;99.90
48206;DHT22;33995;48.202;16.260;2023-02-01T17:03:16;5.70;99.90
48206;DHT22;33995;48.202;16.260;2023-02-01T17:05:52;5.70;99.90
48206;DHT22;33995;48.202;16.260;2023-02-01T17:08:34;5.70;99.90
48206;DHT22;33995;48.202;16.260;2023-02-01T17:11:04;5.70;99.90
48206;DHT22;33995;48.202;16.260;2023-02-01T17:13:33;5.70;99.90
48206;DHT22;33995;48.202;16.260;2023-02-01T17:19:11;5.70;99.90
48206;DHT22;33995;48.202;16.260;2023-02-01T17:21:49;5.60;99.90
48206;DHT22;33995;48.202;16.260;2023-02-01T17:24:28;5.60;99.90
48206;DHT22;33995;48.202;16.260;2023-02-01T17:27:16;5.60;99.90
48206;DHT22;33995;48.202;16.260;2023-02-01T17:29:45;5.60;99.90
48206;DHT22;33995;48.202;16.260;2023-02-01T17:32:19;5.50;99.90
48206;DHT22;33995;48.202;16.260;2023-02-01T17:34:49;5.50;99.90
48206;DHT22;33995;48.202;16.260;2023-02-01T17:37:29;5.60;99.90
48206;DHT22;33995;48.202;16.260;2023-02-01T17:40:00;5.50;99.90
48206;DHT22;33995;48.202;16.260;2023-02-01T17:42:29;5.50;99.90
48206;DHT22;33995;48.202;16.260;2023-02-01T17:45:13;5.40;99.90
48206;DHT22;33995;48.202;16.260;2023-02-01T17:47:44;5.40;99.90
48206;DHT22;33995;48.202;16.260;2023-02-01T17:50:14;5.40;99.90
48206;DHT22;33995;48.202;16.260;2023-02-01T17:52:44;5.40;99.90
48206;DHT22;33995;48.202;16.260;2023-02-01T17:55:19;5.40;99.90
48206;DHT22;33995;48.202;16.260;2023-02-01T17:57:49;5.40;99.90
48206;DHT22;33995;48.202;16.260;2023-02-01T18:00:20;5.40;99.90
48206;DHT22;33995;48.202;16.260;2023-02-01T18:02:50;5.30;99.90
48206;DHT22;33995;48.202;16.260;2023-02-01T18:05:41;5.30;99.90
48206;DHT22;33995;48.202;16.260;2023-02-01T18:08:11;5.30;99.90
48206;DHT22;33995;48.202;16.260;2023-02-01T18:10:39;5.30;99.90
48206;DHT22;33995;48.202;16.260;2023-02-01T18:13:10;5.30;99.90
48206;DHT22;33995;48.202;16.260;2023-02-01T18:15:41;5.40;99.90
48206;DHT22;33995;48.202;16.260;2023-02-01T18:18:12;5.40;99.90
48206;DHT22;33995;48.202;16.260;2023-02-01T18:20:42;5.30;99.90
48206;DHT22;33995;48.202;16.260;2023-02-01T18:23:19;5.30;99.90
48206;DHT22;33995;48.202;16.260;2023-02-01T18:25:48;5.30;99.90
48206;DHT22;33995;48.202;16.260;2023-02-01T18:28:19;5.40;99.90
48206;DHT22;33995;48.202;16.260;2023-02-01T18:30:48;5.40;99.90
48206;DHT22;33995;48.202;16.260;2023-02-01T18:33:21;5.50;99.90
48206;DHT22;33995;48.202;16.260;2023-02-01T18:35:51;5.50;99.90
48206;DHT22;33995;48.202;16.260;2023-02-01T18:38:20;5.60;99.90
48206;DHT22;33995;48.202;16.260;2023-02-01T18:40:53;5.50;99.90
48206;DHT22;33995;48.202;16.260;2023-02-01T18:43:22;5.60;99.90
48206;DHT22;33995;48.202;16.260;2023-02-01T18:45:52;5.60;99.90
48206;DHT22;33995;48.202;16.260;2023-02-01T18:48:21;5.70;99.90
48206;DHT22;33995;48.202;16.260;2023-02-01T18:50:50;5.60;99.90
48206;DHT22;33995;48.202;16.260;2023-02-01T18:53:27;5.60;99.90
48206;DHT22;33995;48.202;16.260;2023-02-01T18:55:58;5.70;99.90
48206;DHT22;33995;48.202;16.260;2023-02-01T18:58:29;5.60;99.90
48206;DHT22;33995;48.202;16.260;2023-02-01T19:01:04;5.90;99.90
48206;DHT22;33995;48.202;16.260;2023-02-01T19:03:36;5.70;99.90
48206;DHT22;33995;48.202;16.260;2023-02-01T19:06:14;5.50;99.90
48206;DHT22;33995;48.202;16.260;2023-02-01T19:08:45;5.50;99.90
48206;DHT22;33995;48.202;16.260;2023-02-01T19:11:14;5.40;99.90
48206;DHT22;33995;48.202;16.260;2023-02-01T19:13:43;5.30;99.90
48206;DHT22;33995;48.202;16.260;2023-02-01T19:16:13;5.30;99.90
48206;DHT22;33995;48.202;16.260;2023-02-01T19:18:49;5.30;99.90